Time;durP1;ratioP1;P1;durP2;ratioP2;P2;SDS_P1;SDS_P2;PMS_P1;PMS_P2;Temp;Humidity;BMP_temperature;BMP_pressure;BME280_temperature;BME280_humidity;BME280_pressure;Samples;Min_cycle;Max_cycle;Signal;HPM_P1;HPM_P2
2023/01/31 00:11:34;;;;;;;21.00;13.90;;;;;;;-0.51;91.26;98128.27;104987;1283;613731;-37
2023/01/31 00:14:04;;;;;;;21.20;14.70;;;;;;;-0.16;89.22;98118.16;106505;1270;255330;-38
2023/01/31 00:16:32;;;;;;;23.50;14.80;;;;;;;-0.17;89.47;98130.20;106757;1264;59548;-37
2023/01/31 00:19:02;;;;;;;19.80;13.30;;;;;;;-0.20;89.12;98127.89;106766;1264;70921;-37
2023/01/31 00:21:31;;;;;;;20.30;13.90;;;;;;;-0.19;88.98;98136.70;106761;1264;69661;-37
2023/01/31 00:24:00;;;;;;;21.20;14.10;;;;;;;-0.15;88.74;98138.29;106734;1269;73604;-37
2023/01/31 00:26:30;;;;;;;19.00;13.70;;;;;;;-0.16;88.53;98140.17;106844;1264;59815;-37
2023/01/31 00:29:00;;;;;;;21.60;14.60;;;;;;;-0.18;88.48;98138.64;106871;1269;59736;-37
2023/01/31 00:31:29;;;;;;;20.40;14.10;;;;;;;-0.18;87.98;98139.24;106789;1264;73408;-37
2023/01/31 00:33:58;;;;;;;20.70;14.00;;;;;;;-0.14;87.58;98138.40;106823;1264;67805;-37
2023/01/31 00:36:29;;;;;;;17.90;11.10;;;;;;;-0.16;87.26;98140.33;106818;1269;72648;-37
2023/01/31 00:38:58;;;;;;;21.40;14.70;;;;;;;-0.19;87.07;98135.70;106892;1265;59115;-39
2023/01/31 00:41:28;;;;;;;20.90;14.60;;;;;;;-0.24;87.02;98142.81;106871;1264;61587;-38
2023/01/31 00:43:59;;;;;;;21.30;14.10;;;;;;;-0.22;87.06;98145.30;106837;1264;74236;-38
2023/01/31 00:46:27;;;;;;;23.20;14.60;;;;;;;-0.17;86.57;98144.29;106803;1264;69866;-39
2023/01/31 00:48:56;;;;;;;21.30;14.30;;;;;;;-0.17;86.45;98140.80;106711;1264;73948;-39
2023/01/31 00:51:25;;;;;;;23.10;14.30;;;;;;;-0.18;86.48;98143.88;106771;1264;60901;-38
2023/01/31 00:53:54;;;;;;;22.20;15.00;;;;;;;-0.19;86.57;98144.44;106815;1269;60505;-38
2023/01/31 00:56:23;;;;;;;23.80;15.40;;;;;;;-0.20;86.41;98138.55;106835;1269;74114;-37
2023/01/31 00:58:54;;;;;;;23.00;15.50;;;;;;;-0.14;86.23;98140.33;106814;1264;68047;-37
2023/01/31 01:01:27;;;;;;;22.20;14.60;;;;;;;-0.14;86.23;98139.34;106808;1264;72565;-37
2023/01/31 01:03:56;;;;;;;23.70;15.50;;;;;;;-0.17;86.26;98136.01;106683;1264;59575;-39
2023/01/31 01:06:28;;;;;;;22.90;14.90;;;;;;;-0.21;86.33;98135.02;106720;1264;61278;-39
2023/01/31 01:08:58;;;;;;;23.00;14.90;;;;;;;-0.18;86.23;98133.85;106720;1264;74336;-39
2023/01/31 01:11:29;;;;;;;22.70;15.30;;;;;;;-0.11;86.10;98130.24;106890;1266;69880;-38
2023/01/31 01:13:58;;;;;;;24.40;15.50;;;;;;;-0.09;86.06;98132.31;106788;1265;71361;-38
2023/01/31 01:16:34;;;;;;;19.60;14.70;;;;;;;-0.11;86.01;98129.88;106790;1265;59793;-38
2023/01/31 01:19:05;;;;;;;20.10;13.40;;;;;;;-0.13;85.95;98131.54;106766;1265;61593;-38
2023/01/31 01:21:40;;;;;;;20.40;14.00;;;;;;;-0.13;85.65;98127.81;106844;1265;72991;-38
2023/01/31 01:24:13;;;;;;;23.60;15.40;;;;;;;-0.13;85.65;98132.76;106779;1266;69933;-38
2023/01/31 01:26:42;;;;;;;22.10;15.00;;;;;;;-0.12;85.88;98136.91;106807;1266;73851;-38
2023/01/31 01:29:11;;;;;;;23.40;15.10;;;;;;;-0.12;85.91;98141.02;106807;1266;60909;-38
2023/01/31 01:31:40;;;;;;;20.60;14.50;;;;;;;-0.14;85.83;98143.83;106792;1265;61168;-38
2023/01/31 01:34:13;;;;;;;23.60;14.40;;;;;;;-0.15;85.57;98138.17;106831;1266;73945;-38
2023/01/31 01:36:42;;;;;;;21.30;14.30;;;;;;;-0.13;85.53;98139.23;107248;1257;68929;-38
2023/01/31 01:39:16;;;;;;;21.60;14.80;;;;;;;-0.12;85.66;98139.94;107232;1257;73818;-38
2023/01/31 01:41:45;;;;;;;22.60;15.30;;;;;;;-0.14;85.61;98138.56;107256;1260;60801;-38
2023/01/31 01:44:50;;;;;;;22.90;15.30;;;;;;;-0.16;85.70;98138.95;107285;1256;61380;-39
2023/01/31 01:47:51;;;;;;;19.40;13.90;;;;;;;-0.11;85.74;98136.86;107291;1258;72702;-38
2023/01/31 01:50:26;;;;;;;23.00;15.50;;;;;;;-0.03;85.51;98137.80;107194;1257;69812;-38
2023/01/31 01:52:59;;;;;;;22.00;15.10;;;;;;;-0.03;85.55;98143.23;107313;1257;71219;-38
2023/01/31 01:55:35;;;;;;;21.70;15.10;;;;;;;-0.03;85.32;98137.11;107284;1258;60784;-37
2023/01/31 01:58:10;;;;;;;22.50;15.20;;;;;;;-0.10;85.41;98139.87;107279;1260;60458;-37
2023/01/31 02:00:38;;;;;;;20.90;14.00;;;;;;;-0.09;85.40;98143.32;107271;1257;74261;-38
2023/01/31 02:03:07;;;;;;;20.00;14.20;;;;;;;-0.06;85.17;98144.28;107306;1257;68846;-37
2023/01/31 02:05:42;;;;;;;22.50;15.90;;;;;;;-0.08;85.10;98143.69;107210;1257;73935;-37
2023/01/31 02:08:11;;;;;;;24.20;16.10;;;;;;;-0.10;85.50;98146.27;107297;1258;60299;-37
2023/01/31 02:11:02;;;;;;;25.00;16.30;;;;;;;-0.11;85.51;98147.90;107254;1257;61175;-38
2023/01/31 02:13:31;;;;;;;19.70;14.20;;;;;;;-0.07;85.29;98149.98;107225;1257;74344;-37
2023/01/31 02:16:00;;;;;;;21.40;14.80;;;;;;;-0.01;84.87;98147.08;107260;1260;69991;-37
2023/01/31 02:18:28;;;;;;;23.80;16.60;;;;;;;-0.00;85.06;98146.14;107271;1257;73886;-37
2023/01/31 02:21:22;;;;;;;21.70;15.60;;;;;;;-0.02;84.96;98144.17;107231;1257;60025;-38
2023/01/31 02:24:04;;;;;;;21.00;15.30;;;;;;;-0.04;84.77;98152.01;107235;1256;59768;-39
2023/01/31 02:27:05;;;;;;;20.80;14.50;;;;;;;-0.03;84.60;98156.36;107224;1257;73784;-39
2023/01/31 02:29:44;;;;;;;21.30;15.40;;;;;;;0.00;84.48;98158.55;107233;1257;70049;-39
2023/01/31 02:32:21;;;;;;;20.20;14.70;;;;;;;-0.06;84.51;98156.88;107225;1260;73850;-39
2023/01/31 02:35:07;;;;;;;23.90;15.30;;;;;;;-0.08;84.70;98153.49;107213;1257;59845;-39
2023/01/31 02:37:40;;;;;;;23.50;16.10;;;;;;;-0.11;84.82;98153.07;107253;1257;60100;-38
2023/01/31 02:40:33;;;;;;;21.00;14.00;;;;;;;-0.09;84.79;98154.29;107254;1257;74014;-39
2023/01/31 02:43:26;;;;;;;21.50;14.20;;;;;;;-0.02;84.38;98157.88;107201;1257;69984;-39
2023/01/31 02:46:06;;;;;;;22.30;15.60;;;;;;;-0.04;84.49;98161.34;107205;1257;73576;-39
2023/01/31 02:48:43;;;;;;;22.80;16.20;;;;;;;-0.08;84.72;98165.05;107075;1258;59364;-39
2023/01/31 02:51:24;;;;;;;21.90;15.00;;;;;;;-0.10;84.74;98166.19;107212;1258;61522;-39
2023/01/31 02:53:58;;;;;;;21.10;15.10;;;;;;;-0.08;84.54;98168.98;107214;1263;73838;-38
2023/01/31 02:56:31;;;;;;;22.40;15.40;;;;;;;-0.01;84.47;98170.73;107246;1257;69877;-37
2023/01/31 02:59:12;;;;;;;22.90;15.00;;;;;;;0.03;84.53;98168.63;107194;1257;73842;-38
2023/01/31 03:01:45;;;;;;;24.80;16.40;;;;;;;-0.02;84.37;98161.81;107274;1257;60151;-38
2023/01/31 03:04:14;;;;;;;24.00;17.10;;;;;;;-0.01;84.41;98168.96;107301;1257;61485;-38
2023/01/31 03:06:53;;;;;;;22.20;15.40;;;;;;;-0.03;84.24;98170.09;107278;1257;74255;-38
2023/01/31 03:09:37;;;;;;;22.60;15.20;;;;;;;0.02;83.99;98169.29;107198;1260;69995;-38
2023/01/31 03:12:35;;;;;;;22.20;14.70;;;;;;;0.09;84.01;98172.67;105710;1257;1003512;-38
2023/01/31 03:15:19;;;;;;;24.50;15.00;;;;;;;0.06;83.98;98174.70;107106;1257;59833;-38
2023/01/31 03:18:03;;;;;;;23.10;15.80;;;;;;;0.03;84.05;98176.94;107204;1257;61390;-38
2023/01/31 03:21:09;;;;;;;19.30;14.20;;;;;;;0.01;84.16;98177.41;107017;1257;74067;-38
2023/01/31 03:23:37;;;;;;;22.00;15.80;;;;;;;0.07;83.83;98181.87;107056;1257;70353;-38
2023/01/31 03:26:06;;;;;;;20.00;15.00;;;;;;;0.10;83.80;98181.58;107311;1257;72084;-38
2023/01/31 03:28:35;;;;;;;24.10;16.10;;;;;;;0.12;83.63;98178.00;107070;1257;60855;-38
2023/01/31 03:31:18;;;;;;;15.70;11.70;;;;;;;0.11;83.75;98180.07;107242;1257;60484;-37
2023/01/31 03:33:49;;;;;;;21.10;14.70;;;;;;;0.09;83.70;98180.75;107297;1257;73909;-38
2023/01/31 03:36:29;;;;;;;20.50;14.90;;;;;;;0.04;83.67;98179.58;107219;1262;68817;-37
2023/01/31 03:39:18;;;;;;;21.00;14.60;;;;;;;0.10;83.39;98182.63;106522;1257;1003032;-39
2023/01/31 03:42:06;;;;;;;20.30;13.90;;;;;;;0.15;83.26;98187.86;107189;1257;60760;-38
2023/01/31 03:44:50;;;;;;;20.30;15.30;;;;;;;0.15;83.35;98189.21;107253;1256;61206;-39
2023/01/31 03:47:40;;;;;;;25.20;16.50;;;;;;;0.15;83.46;98188.77;107249;1260;74309;-39
2023/01/31 03:50:29;;;;;;;21.60;15.60;;;;;;;0.16;83.58;98185.92;107259;1257;69700;-38
2023/01/31 03:53:03;;;;;;;20.40;14.90;;;;;;;0.22;83.19;98184.73;107202;1262;72676;-38
2023/01/31 03:55:48;;;;;;;20.80;14.90;;;;;;;0.29;82.92;98183.70;107249;1259;60749;-38
2023/01/31 03:58:18;;;;;;;22.40;15.00;;;;;;;0.30;82.66;98192.06;107218;1257;61529;-38
2023/01/31 04:00:47;;;;;;;20.90;15.40;;;;;;;0.28;82.57;98188.23;107292;1257;74474;-38
2023/01/31 04:03:23;;;;;;;21.10;15.90;;;;;;;0.24;82.54;98183.65;107211;1257;68780;-39
2023/01/31 04:05:52;;;;;;;22.40;14.90;;;;;;;0.25;82.90;98188.73;107217;1257;73656;-38
2023/01/31 04:08:21;;;;;;;22.40;15.30;;;;;;;0.33;82.50;98187.29;107252;1257;60129;-39
2023/01/31 04:10:57;;;;;;;20.90;14.50;;;;;;;0.41;82.23;98193.17;107259;1256;61338;-39
2023/01/31 04:13:26;;;;;;;20.40;15.00;;;;;;;0.45;82.02;98191.65;107201;1257;74256;-39
2023/01/31 04:15:54;;;;;;;20.30;15.20;;;;;;;0.47;81.87;98195.05;107222;1257;69610;-38
2023/01/31 04:18:23;;;;;;;20.50;14.90;;;;;;;0.49;81.85;98199.64;107284;1257;73869;-39
2023/01/31 04:20:51;;;;;;;21.50;15.20;;;;;;;0.48;81.36;98204.94;107242;1257;62134;-38
2023/01/31 04:23:20;;;;;;;21.30;15.20;;;;;;;0.50;81.24;98203.39;107223;1256;61598;-39
2023/01/31 04:25:48;;;;;;;22.50;16.00;;;;;;;0.54;81.02;98203.50;107222;1257;72396;-39
2023/01/31 04:28:17;;;;;;;22.90;15.90;;;;;;;0.58;81.09;98203.41;107227;1256;69821;-38
2023/01/31 04:30:45;;;;;;;21.10;15.90;;;;;;;0.58;80.97;98204.05;107250;1257;73847;-38
2023/01/31 04:33:13;;;;;;;22.00;16.20;;;;;;;0.60;80.90;98205.57;107234;1257;60732;-38
2023/01/31 04:35:42;;;;;;;23.60;16.90;;;;;;;0.60;80.92;98201.61;107326;1256;61497;-38
2023/01/31 04:38:10;;;;;;;23.30;16.40;;;;;;;0.59;80.50;98203.52;107265;1256;75056;-38
2023/01/31 04:40:41;;;;;;;21.30;15.60;;;;;;;0.58;80.37;98199.21;107263;1257;69912;-38
2023/01/31 04:43:11;;;;;;;21.30;14.90;;;;;;;0.60;79.98;98202.97;107257;1257;73892;-38
2023/01/31 04:45:39;;;;;;;23.90;16.30;;;;;;;0.60;80.06;98210.49;107227;1257;60702;-38
2023/01/31 04:48:08;;;;;;;23.90;16.10;;;;;;;0.53;79.79;98212.67;107280;1257;60416;-38
2023/01/31 04:50:38;;;;;;;22.70;16.80;;;;;;;0.47;79.99;98216.46;107342;1257;74967;-38
2023/01/31 04:53:07;;;;;;;22.70;15.70;;;;;;;0.43;80.40;98214.75;107369;1257;68841;-38
2023/01/31 04:55:39;;;;;;;21.00;14.60;;;;;;;0.48;80.09;98222.35;107246;1260;73934;-38
2023/01/31 04:58:08;;;;;;;21.50;15.60;;;;;;;0.51;79.96;98226.45;107296;1257;60262;-38
2023/01/31 05:00:37;;;;;;;20.90;15.60;;;;;;;0.51;79.90;98227.30;107331;1257;60496;-38
2023/01/31 05:03:05;;;;;;;22.20;16.30;;;;;;;0.47;80.21;98234.30;107272;1257;74999;-38
2023/01/31 05:05:34;;;;;;;24.20;16.80;;;;;;;0.46;80.45;98233.13;107312;1257;69345;-38
2023/01/31 05:08:04;;;;;;;;;;;;;;;0.46;80.34;98232.73;107263;1257;72885;-38
2023/01/31 05:10:33;;;;;;;24.40;16.70;;;;;;;0.37;80.26;98228.57;107251;1256;60537;-39
2023/01/31 05:13:01;;;;;;;24.00;16.30;;;;;;;0.31;80.56;98232.15;107242;1257;61467;-38
2023/01/31 05:15:31;;;;;;;23.90;16.60;;;;;;;0.36;80.21;98235.69;107297;1257;74664;-39
2023/01/31 05:18:03;;;;;;;25.00;16.60;;;;;;;0.36;80.27;98235.01;107265;1257;68937;-39
2023/01/31 05:20:41;;;;;;;27.40;18.00;;;;;;;0.34;80.54;98239.50;107324;1257;71338;-39
2023/01/31 05:23:10;;;;;;;25.10;17.40;;;;;;;0.32;80.54;98241.80;107282;1257;60442;-39
2023/01/31 05:25:38;;;;;;;23.40;16.80;;;;;;;0.29;80.61;98246.55;107281;1257;60630;-39
2023/01/31 05:28:07;;;;;;;23.30;16.70;;;;;;;0.30;80.97;98247.20;107256;1257;74474;-39
2023/01/31 05:30:36;;;;;;;22.80;16.40;;;;;;;0.35;80.69;98245.23;107294;1256;69863;-39
2023/01/31 05:33:06;;;;;;;22.70;16.00;;;;;;;0.39;80.66;98247.11;107215;1257;72415;-38
2023/01/31 05:35:36;;;;;;;24.50;17.00;;;;;;;0.39;80.62;98246.73;107297;1256;60622;-39
2023/01/31 05:38:04;;;;;;;24.50;17.50;;;;;;;0.35;80.56;98249.28;107232;1257;61536;-39
2023/01/31 05:40:33;;;;;;;24.50;17.50;;;;;;;0.30;80.72;98256.08;107292;1257;73310;-38
2023/01/31 05:43:03;;;;;;;24.70;17.40;;;;;;;0.28;81.13;98259.05;107297;1257;68823;-39
2023/01/31 05:45:32;;;;;;;23.80;16.40;;;;;;;0.33;80.99;98256.98;107300;1257;73573;-38
2023/01/31 05:48:00;;;;;;;23.80;16.50;;;;;;;0.41;80.77;98262.79;107274;1257;60812;-39
2023/01/31 05:50:29;;;;;;;25.90;18.20;;;;;;;0.43;80.65;98263.87;107266;1256;61517;-39
2023/01/31 05:53:09;;;;;;;25.40;17.60;;;;;;;0.42;80.92;98263.70;107271;1257;74827;-38
2023/01/31 05:55:38;;;;;;;25.90;18.50;;;;;;;0.38;81.17;98265.64;107272;1256;69098;-38
2023/01/31 05:58:06;;;;;;;27.80;18.20;;;;;;;0.33;81.19;98259.80;107274;1256;73856;-38
2023/01/31 06:00:35;;;;;;;23.30;16.90;;;;;;;0.42;81.03;98271.14;107292;1256;62437;-38
2023/01/31 06:03:04;;;;;;;25.50;17.90;;;;;;;0.53;80.81;98277.79;107294;1257;60485;-38
2023/01/31 06:05:32;;;;;;;26.20;17.20;;;;;;;0.59;80.95;98280.94;107238;1257;75033;-38
2023/01/31 06:08:02;;;;;;;27.30;18.00;;;;;;;0.62;80.90;98285.19;107271;1257;69966;-38
2023/01/31 06:10:30;;;;;;;26.00;18.30;;;;;;;0.65;80.72;98286.06;107288;1257;73702;-38
2023/01/31 06:12:59;;;;;;;26.80;17.90;;;;;;;0.65;80.56;98285.23;107294;1256;60772;-38
2023/01/31 06:15:27;;;;;;;24.30;16.60;;;;;;;0.66;80.38;98284.98;107273;1256;60885;-38
2023/01/31 06:17:56;;;;;;;25.40;17.40;;;;;;;0.71;80.48;98283.20;107263;1257;75046;-38
2023/01/31 06:20:25;;;;;;;24.80;16.90;;;;;;;0.75;80.52;98290.16;107311;1257;69855;-38
2023/01/31 06:22:54;;;;;;;27.90;18.30;;;;;;;0.77;80.52;98290.38;107293;1257;72697;-38
2023/01/31 06:25:22;;;;;;;26.20;17.90;;;;;;;0.76;80.45;98291.48;107244;1257;60946;-38
2023/01/31 06:27:54;;;;;;;25.50;17.90;;;;;;;0.73;80.59;98297.00;107317;1257;61430;-37
2023/01/31 06:30:23;;;;;;;23.00;17.30;;;;;;;0.77;80.57;98301.66;107273;1260;75007;-37
2023/01/31 06:32:52;;;;;;;21.80;16.30;;;;;;;0.83;80.45;98300.70;107280;1257;68923;-38
2023/01/31 06:35:20;;;;;;;23.40;16.60;;;;;;;0.88;80.39;98303.31;107273;1256;74004;-38
2023/01/31 06:37:50;;;;;;;27.60;19.20;;;;;;;0.90;80.57;98305.30;107261;1257;60533;-38
2023/01/31 06:40:18;;;;;;;27.30;18.30;;;;;;;0.93;80.39;98309.67;107243;1258;61550;-38
2023/01/31 06:42:46;;;;;;;29.00;20.10;;;;;;;0.94;80.35;98305.60;107292;1256;74751;-38
2023/01/31 06:45:15;;;;;;;26.30;18.30;;;;;;;0.98;80.14;98309.88;107290;1257;70129;-38
2023/01/31 06:47:44;;;;;;;26.80;18.50;;;;;;;1.02;79.84;98312.73;107251;1257;72635;-38
2023/01/31 06:50:12;;;;;;;25.10;17.40;;;;;;;1.05;79.86;98312.65;107322;1257;60517;-38
2023/01/31 06:52:41;;;;;;;26.80;19.20;;;;;;;1.04;79.70;98316.30;107244;1257;61450;-38
2023/01/31 06:55:10;;;;;;;27.80;19.70;;;;;;;1.01;79.74;98318.85;107248;1257;75088;-38
2023/01/31 06:57:48;;;;;;;25.70;17.90;;;;;;;0.99;79.85;98315.77;107277;1257;69860;-38
2023/01/31 07:00:17;;;;;;;26.30;19.10;;;;;;;1.00;79.78;98315.90;107231;1257;73918;-38
2023/01/31 07:02:46;;;;;;;28.00;18.20;;;;;;;1.01;80.07;98314.96;107292;1257;60517;-38
2023/01/31 07:05:14;;;;;;;27.10;18.70;;;;;;;1.08;79.92;98320.70;107236;1257;61360;-38
2023/01/31 07:07:43;;;;;;;27.60;18.60;;;;;;;1.11;79.87;98321.21;105003;1257;1003809;-38
2023/01/31 07:10:12;;;;;;;25.70;18.70;;;;;;;1.16;80.08;98324.67;107292;1260;69923;-38
2023/01/31 07:12:40;;;;;;;28.20;19.30;;;;;;;1.21;79.97;98324.15;107261;1257;73911;-38
2023/01/31 07:15:09;;;;;;;26.00;17.70;;;;;;;1.30;79.64;98325.45;107252;1260;61376;-38
2023/01/31 07:17:38;;;;;;;27.90;18.70;;;;;;;1.40;79.48;98329.65;107322;1257;60519;-38
2023/01/31 07:20:08;;;;;;;25.30;18.50;;;;;;;1.46;79.28;98331.41;107240;1261;75068;-38
2023/01/31 07:22:36;;;;;;;28.60;20.20;;;;;;;1.48;79.27;98331.27;107303;1257;69935;-38
2023/01/31 07:25:06;;;;;;;30.50;20.90;;;;;;;1.49;79.16;98333.65;107299;1257;73980;-38
2023/01/31 07:27:34;;;;;;;22.40;15.60;;;;;;;1.49;79.03;98329.30;107346;1257;60437;-38
2023/01/31 07:30:04;;;;;;;26.10;18.10;;;;;;;1.53;78.89;98323.12;107258;1256;60562;-39
2023/01/31 07:32:33;;;;;;;27.30;18.70;;;;;;;1.60;78.59;98328.16;107297;1257;75053;-39
2023/01/31 07:35:01;;;;;;;28.50;19.70;;;;;;;1.63;78.66;98327.54;107268;1257;69994;-38
2023/01/31 07:37:30;;;;;;;52.80;36.50;;;;;;;1.66;78.66;98327.52;107290;1257;71850;-39
2023/01/31 07:39:59;;;;;;;20.90;15.20;;;;;;;1.67;78.45;98332.80;107304;1257;60771;-39
2023/01/31 07:42:28;;;;;;;29.90;19.40;;;;;;;1.66;78.32;98335.35;107296;1257;61508;-39
2023/01/31 07:44:56;;;;;;;30.50;20.20;;;;;;;1.64;78.46;98338.33;107367;1257;74070;-38
2023/01/31 07:47:30;;;;;;;25.20;18.40;;;;;;;1.69;78.43;98338.91;107263;1257;67977;-38
2023/01/31 07:49:58;;;;;;;27.70;19.00;;;;;;;1.79;78.26;98351.80;107273;1257;73857;-38
2023/01/31 07:52:26;;;;;;;28.20;19.50;;;;;;;1.85;78.26;98356.28;107232;1260;60783;-38
2023/01/31 07:54:55;;;;;;;29.20;19.10;;;;;;;1.89;78.19;98356.27;107226;1257;61581;-38
2023/01/31 07:57:23;;;;;;;25.10;18.80;;;;;;;1.92;78.23;98363.17;107275;1257;74956;-38
2023/01/31 07:59:52;;;;;;;28.20;19.30;;;;;;;1.90;77.96;98361.19;107297;1260;68904;-38
2023/01/31 08:05:08;;;;;;;27.10;18.20;;;;;;;2.02;77.47;98365.22;107300;1257;60617;-38
2023/01/31 08:07:37;;;;;;;25.60;18.80;;;;;;;1.99;77.37;98368.64;107254;1257;61346;-38
2023/01/31 08:10:06;;;;;;;26.00;19.20;;;;;;;1.96;77.48;98372.66;107371;1257;74842;-38
2023/01/31 08:12:37;;;;;;;27.80;19.40;;;;;;;1.93;77.29;98377.13;107284;1257;69769;-38
2023/01/31 08:15:06;;;;;;;27.80;18.60;;;;;;;1.90;77.64;98377.92;107279;1257;73878;-38
2023/01/31 08:17:35;;;;;;;24.10;18.10;;;;;;;1.94;77.62;98375.79;107283;1257;62461;-38
2023/01/31 08:20:04;;;;;;;26.20;19.00;;;;;;;1.96;77.44;98372.29;107247;1256;61527;-38
2023/01/31 08:22:33;;;;;;;27.70;20.10;;;;;;;1.98;77.50;98370.73;107271;1257;72888;-38
2023/01/31 08:25:01;;;;;;;28.00;20.20;;;;;;;1.98;77.62;98374.66;107258;1257;69936;-38
2023/01/31 08:27:30;;;;;;;27.50;20.20;;;;;;;1.98;77.54;98379.84;107322;1262;73875;-38
2023/01/31 08:29:58;;;;;;;26.20;18.80;;;;;;;2.02;77.60;98372.10;107246;1258;62379;-38
2023/01/31 08:32:27;;;;;;;25.40;18.10;;;;;;;2.10;77.57;98376.83;107261;1257;61897;-38
2023/01/31 08:34:56;;;;;;;28.10;19.50;;;;;;;2.15;77.31;98374.42;107334;1257;73349;-38
2023/01/31 08:37:25;;;;;;;29.50;20.60;;;;;;;2.16;77.04;98374.92;107340;1257;69688;-38
2023/01/31 08:39:53;;;;;;;26.60;19.60;;;;;;;2.15;76.94;98381.09;107318;1257;73723;-38
2023/01/31 08:42:22;;;;;;;26.80;18.70;;;;;;;2.16;77.15;98379.80;107314;1257;62580;-38
2023/01/31 08:44:51;;;;;;;25.20;17.90;;;;;;;2.21;76.79;98382.05;107288;1257;61550;-38
2023/01/31 08:47:23;;;;;;;27.40;19.40;;;;;;;2.29;76.60;98384.24;107279;1256;74992;-38
2023/01/31 08:49:52;;;;;;;25.90;19.10;;;;;;;2.30;76.54;98381.72;107304;1257;69968;-38
2023/01/31 08:52:21;;;;;;;27.10;19.50;;;;;;;2.27;76.63;98381.41;107256;1257;72543;-38
2023/01/31 08:54:49;;;;;;;29.00;19.50;;;;;;;2.23;76.77;98381.05;107281;1257;60851;-38
2023/01/31 08:57:19;;;;;;;29.30;19.30;;;;;;;2.23;76.80;98381.41;107314;1257;61614;-38
2023/01/31 08:59:48;;;;;;;;;;;;;;;2.26;76.52;98373.50;107265;1257;74709;-38
2023/01/31 09:02:16;;;;;;;26.70;17.80;;;;;;;2.25;76.52;98378.36;107284;1257;70079;-38
2023/01/31 09:04:45;;;;;;;29.00;20.20;;;;;;;2.21;76.70;98375.95;107233;1258;74011;-38
2023/01/31 09:07:13;;;;;;;28.90;20.10;;;;;;;2.28;76.87;98395.73;107266;1261;60980;-38
2023/01/31 09:09:44;;;;;;;25.90;19.60;;;;;;;2.36;76.90;98398.59;107285;1262;61528;-38
2023/01/31 09:12:12;;;;;;;28.90;20.10;;;;;;;2.41;76.80;98397.48;107245;1257;75037;-38
2023/01/31 09:14:42;;;;;;;29.40;19.60;;;;;;;2.52;76.43;98393.69;107264;1258;69996;-38
2023/01/31 09:17:10;;;;;;;28.30;19.40;;;;;;;2.59;75.75;98392.92;107237;1257;72180;-38
2023/01/31 09:19:39;;;;;;;18.70;13.60;;;;;;;2.57;75.78;98390.11;107275;1258;61167;-38
2023/01/31 09:22:08;;;;;;;26.50;19.30;;;;;;;2.55;75.98;98392.49;107229;1257;60439;-38
2023/01/31 09:24:36;;;;;;;28.10;20.50;;;;;;;2.56;75.62;98394.52;107262;1257;75224;-38
2023/01/31 09:27:05;;;;;;;28.40;19.30;;;;;;;2.55;75.46;98394.04;107309;1257;69965;-38
2023/01/31 09:29:34;;;;;;;26.60;18.40;;;;;;;2.59;75.50;98393.67;107287;1257;72857;-38
2023/01/31 09:32:03;;;;;;;26.20;19.40;;;;;;;2.63;75.25;98397.36;107242;1257;59735;-38
2023/01/31 09:34:32;;;;;;;28.50;20.00;;;;;;;2.63;75.15;98396.50;107348;1257;61318;-38
2023/01/31 09:37:00;;;;;;;25.60;20.00;;;;;;;2.60;75.50;98397.02;107276;1257;74768;-39
2023/01/31 09:39:29;;;;;;;30.10;20.50;;;;;;;2.61;75.50;98397.75;107246;1257;69999;-38
2023/01/31 09:42:02;;;;;;;32.50;19.80;;;;;;;2.62;75.48;98396.77;107237;1261;73885;-39
2023/01/31 09:44:31;;;;;;;23.60;17.70;;;;;;;2.63;75.27;98394.81;107231;1257;61388;-39
2023/01/31 09:47:13;;;;;;;26.40;19.00;;;;;;;2.67;75.19;98390.20;107297;1257;61127;-39
2023/01/31 09:49:51;;;;;;;25.90;19.50;;;;;;;2.64;75.12;98390.96;107279;1257;74948;-39
2023/01/31 09:52:20;;;;;;;26.00;18.70;;;;;;;2.58;75.33;98392.87;107276;1257;68667;-39
2023/01/31 09:54:48;;;;;;;24.30;17.80;;;;;;;2.56;75.65;98390.30;107288;1257;74038;-38
2023/01/31 09:57:39;;;;;;;27.00;19.20;;;;;;;2.54;75.63;98390.55;107251;1257;62304;-38
2023/01/31 10:00:19;;;;;;;25.40;18.40;;;;;;;2.60;75.71;98393.65;107315;1257;61363;-38
2023/01/31 10:03:02;;;;;;;26.20;19.10;;;;;;;2.60;75.62;98393.90;107271;1261;74984;-38
2023/01/31 10:05:46;;;;;;;29.00;19.90;;;;;;;2.57;75.72;98394.02;107244;1257;69910;-38
2023/01/31 10:08:30;;;;;;;27.90;18.50;;;;;;;2.53;76.00;98395.91;107217;1257;73933;-38
2023/01/31 10:11:00;;;;;;;26.40;18.80;;;;;;;2.47;76.32;98397.63;107294;1257;61168;-38
2023/01/31 10:13:45;;;;;;;23.60;17.10;;;;;;;2.53;76.37;98397.77;107226;1257;61246;-38
2023/01/31 10:16:26;;;;;;;23.40;17.50;;;;;;;2.61;75.99;98401.09;107206;1257;74986;-38
2023/01/31 10:19:20;;;;;;;25.80;19.30;;;;;;;2.56;76.05;98395.11;107269;1257;69905;-38
2023/01/31 10:21:55;;;;;;;25.40;17.10;;;;;;;2.47;76.30;98397.17;107216;1257;72102;-38
2023/01/31 10:24:39;;;;;;;23.50;17.20;;;;;;;2.40;76.54;98398.45;107205;1258;62030;-38
2023/01/31 10:27:15;;;;;;;24.30;17.30;;;;;;;2.40;76.85;98398.21;107310;1257;61278;-38
2023/01/31 10:29:46;;;;;;;26.10;17.50;;;;;;;2.45;77.01;98398.94;107265;1257;73843;-38
2023/01/31 10:32:50;;;;;;;28.70;18.30;;;;;;;2.51;77.17;98401.50;107208;1261;69875;-38
2023/01/31 10:35:42;;;;;;;28.00;18.20;;;;;;;2.54;77.07;98395.52;106945;1257;73893;-38
2023/01/31 10:38:40;;;;;;;27.10;18.10;;;;;;;2.52;76.95;98401.02;107140;1260;62107;-38
2023/01/31 10:41:19;;;;;;;25.20;17.60;;;;;;;2.54;77.12;98391.91;107239;1258;61418;-38
2023/01/31 10:43:52;;;;;;;25.40;18.00;;;;;;;2.64;76.79;98394.10;107253;1261;74890;-38
2023/01/31 10:46:20;;;;;;;24.30;17.80;;;;;;;2.62;76.74;98393.94;107267;1258;69917;-38
2023/01/31 10:48:48;;;;;;;26.00;18.00;;;;;;;2.58;77.03;98389.00;107275;1257;73818;-38
2023/01/31 10:51:51;;;;;;;27.40;17.80;;;;;;;2.57;77.09;98394.39;107338;1257;60761;-38
2023/01/31 10:54:26;;;;;;;23.60;16.80;;;;;;;2.62;77.04;98396.11;107273;1263;60650;-38
2023/01/31 10:56:55;;;;;;;25.40;17.60;;;;;;;2.70;77.06;98393.54;107278;1257;75044;-38
2023/01/31 10:59:24;;;;;;;;;;;;;;;2.76;76.99;98391.73;107095;1258;69905;-37
2023/01/31 11:01:53;;;;;;;24.20;18.00;;;;;;;2.76;76.99;98394.14;107310;1257;73846;-37
2023/01/31 11:04:24;;;;;;;28.90;18.90;;;;;;;2.77;77.12;98398.06;107321;1257;60684;-38
2023/01/31 11:06:53;;;;;;;27.10;18.50;;;;;;;2.83;76.91;98393.81;107342;1260;60467;-37
2023/01/31 11:09:22;;;;;;;25.80;18.10;;;;;;;2.86;76.50;98391.95;107289;1257;73987;-38
2023/01/31 11:11:56;;;;;;;25.90;17.90;;;;;;;2.93;76.34;98392.33;107263;1257;69616;-38
2023/01/31 11:14:24;;;;;;;24.90;17.60;;;;;;;2.92;76.10;98390.84;107271;1256;72712;-38
2023/01/31 11:17:16;;;;;;;29.00;19.90;;;;;;;2.89;76.20;98397.63;107238;1257;61260;-38
2023/01/31 11:19:47;;;;;;;26.00;18.80;;;;;;;2.86;76.30;98393.89;107311;1257;60476;-38
2023/01/31 11:22:24;;;;;;;26.50;19.40;;;;;;;2.85;76.50;98395.88;107244;1256;75075;-38
2023/01/31 11:24:52;;;;;;;23.40;17.30;;;;;;;2.90;76.31;98392.69;107280;1257;69751;-38
2023/01/31 11:27:36;;;;;;;23.50;17.00;;;;;;;2.95;76.19;98394.99;107181;1257;73894;-38
2023/01/31 11:30:06;;;;;;;26.60;18.00;;;;;;;2.98;76.20;98388.44;107265;1257;61553;-38
2023/01/31 11:32:35;;;;;;;27.60;18.90;;;;;;;2.97;76.28;98387.95;107258;1257;60408;-38
2023/01/31 11:35:13;;;;;;;23.20;17.60;;;;;;;2.99;76.31;98386.18;107244;1257;75090;-38
2023/01/31 11:37:52;;;;;;;27.70;17.80;;;;;;;3.04;76.25;98388.70;107274;1262;68063;-38
2023/01/31 11:40:31;;;;;;;25.70;18.10;;;;;;;3.12;75.89;98391.80;107225;1257;72602;-39
2023/01/31 16:09:39;;;;;;;17.80;13.40;;;;;;;1.99;89.64;98517.07;105110;1281;612819;-38
2023/01/31 16:12:08;;;;;;;20.80;14.00;;;;;;;2.44;87.50;98517.98;106466;1272;214348;-38
2023/01/31 16:14:36;;;;;;;17.50;13.40;;;;;;;2.37;87.45;98516.40;106726;1264;61556;-38
2023/01/31 16:17:05;;;;;;;19.70;12.80;;;;;;;2.35;87.25;98516.69;106815;1268;73063;-38
2023/01/31 16:19:36;;;;;;;18.90;12.90;;;;;;;2.36;86.88;98519.89;106824;1263;69880;-38
2023/01/31 16:22:23;;;;;;;21.20;13.90;;;;;;;2.37;86.65;98524.73;106830;1263;72583;-38